createdAt,value
2023-03-05T00:00:16.189Z,1003.22
2023-03-05T00:00:46.983Z,1003.11
2023-03-05T00:01:19.934Z,1003.11
2023-03-05T00:01:51.157Z,1003.11
2023-03-05T00:02:23.992Z,1003.11
2023-03-05T00:02:54.880Z,1003.01
2023-03-05T00:03:27.831Z,1003.01
2023-03-05T00:03:58.955Z,1003.11
2023-03-05T00:04:31.732Z,1003.11
2023-03-05T00:05:02.759Z,1003.11
2023-03-05T00:05:36.407Z,1003.11
2023-03-05T00:06:07.221Z,1003.11
2023-03-05T00:06:39.557Z,1003.11
2023-03-05T00:07:10.788Z,1003.01
2023-03-05T00:07:43.610Z,1003.01
2023-03-05T00:08:14.715Z,1003.11
2023-03-05T00:08:47.682Z,1003.11
2023-03-05T00:09:18.712Z,1003.11
2023-03-05T00:09:51.493Z,1003.01
2023-03-05T00:10:22.622Z,1003.01
2023-03-05T00:10:55.565Z,1003.11
2023-03-05T00:11:26.515Z,1003.11
2023-03-05T00:11:59.439Z,1003.11
2023-03-05T00:12:30.729Z,1003.11
2023-03-05T00:13:03.576Z,1003.22
2023-03-05T00:13:34.380Z,1003.22
2023-03-05T00:14:07.313Z,1003.11
2023-03-05T00:14:38.441Z,1003.11
2023-03-05T00:15:11.520Z,1003.11
2023-03-05T00:15:42.448Z,1003.11
2023-03-05T00:16:15.433Z,1002.91
2023-03-05T00:16:46.414Z,1003.01
2023-03-05T00:17:19.119Z,1003.01
2023-03-05T00:17:50.263Z,1003.11
2023-03-05T00:18:23.251Z,1003.11
2023-03-05T00:18:54.300Z,1002.91
2023-03-05T00:19:27.063Z,1002.91
2023-03-05T00:19:58.130Z,1003.11
2023-03-05T00:20:31.179Z,1003.11
2023-03-05T00:21:02.272Z,1002.91
2023-03-05T00:21:35.613Z,1002.91
2023-03-05T00:22:06.087Z,1002.91
2023-03-05T00:22:38.966Z,1002.91
2023-03-05T00:23:10.126Z,1003.01
2023-03-05T00:23:43.117Z,1003.01
2023-03-05T00:24:13.928Z,1003.01
2023-03-05T00:24:46.891Z,1002.91
2023-03-05T00:25:18.054Z,1002.91
2023-03-05T00:25:51.100Z,1003.11
2023-03-05T00:26:21.877Z,1003.11
2023-03-05T00:26:54.685Z,1003.01
2023-03-05T00:27:25.908Z,1003.01
2023-03-05T00:27:58.877Z,1002.91
2023-03-05T00:28:29.805Z,1002.91
2023-03-05T00:29:02.703Z,1002.91
2023-03-05T00:29:33.813Z,1002.91
2023-03-05T00:30:07.084Z,1003.01
2023-03-05T00:30:37.697Z,1003.01
2023-03-05T00:31:10.934Z,1003.11
2023-03-05T00:31:41.742Z,1003.11
2023-03-05T00:32:14.650Z,1003.01
2023-03-05T00:32:45.593Z,1002.91
2023-03-05T00:33:18.629Z,1002.91
2023-03-05T00:33:49.615Z,1002.91
2023-03-05T00:34:22.476Z,1002.91
2023-03-05T00:34:53.468Z,1002.81
2023-03-05T00:35:26.381Z,1002.81
2023-03-05T00:35:57.599Z,1002.91
2023-03-05T00:36:30.815Z,1002.91
2023-03-05T00:37:01.402Z,1002.91
2023-03-05T00:37:34.325Z,1002.91
2023-03-05T00:38:05.453Z,1002.91
2023-03-05T00:38:38.367Z,1002.91
2023-03-05T00:39:09.608Z,1003.01
2023-03-05T00:39:42.240Z,1003.01
2023-03-05T00:40:13.419Z,1002.91
2023-03-05T00:40:46.459Z,1002.91
2023-03-05T00:41:17.282Z,1002.91
2023-03-05T00:41:50.252Z,1002.81
2023-03-05T00:42:21.261Z,1002.81
2023-03-05T00:42:54.109Z,1002.81
2023-03-05T00:43:25.133Z,1002.81
2023-03-05T00:43:58.530Z,1002.91
2023-03-05T00:44:29.151Z,1002.91
2023-03-05T00:45:02.252Z,1002.81
2023-03-05T00:45:33.622Z,1002.81
2023-03-05T00:46:06.008Z,1002.81
2023-03-05T00:46:37.149Z,1002.81
2023-03-05T00:47:10.049Z,1002.71
2023-03-05T00:47:41.014Z,1002.71
2023-03-05T00:48:13.950Z,1003.01
2023-03-05T00:48:45.007Z,1003.01
2023-03-05T00:49:17.956Z,1002.91
2023-03-05T00:49:48.831Z,1002.81
2023-03-05T00:50:21.879Z,1002.81
2023-03-05T00:50:52.888Z,1002.81
2023-03-05T00:51:25.853Z,1002.81
2023-03-05T00:51:57.170Z,1002.71
2023-03-05T00:52:29.563Z,1002.71
2023-03-05T00:53:01.046Z,1002.71
2023-03-05T00:53:34.537Z,1002.71
2023-03-05T00:54:04.851Z,1002.71
2023-03-05T00:54:37.565Z,1002.71
2023-03-05T00:55:08.864Z,1002.71
2023-03-05T00:55:41.627Z,1002.71
2023-03-05T00:56:12.771Z,1002.71
2023-03-05T00:56:45.524Z,1002.71
2023-03-05T00:57:16.632Z,1002.71
2023-03-05T00:57:49.543Z,1002.71
2023-03-05T00:58:20.757Z,1002.71
2023-03-05T00:58:53.409Z,1002.71
2023-03-05T00:59:24.537Z,1002.71
2023-03-05T00:59:57.404Z,1002.81
2023-03-05T01:00:28.721Z,1002.81
2023-03-05T01:01:01.304Z,1002.81
2023-03-05T01:01:32.677Z,1002.81
2023-03-05T01:02:05.430Z,1002.71
2023-03-05T01:02:36.585Z,1002.71
2023-03-05T01:03:09.322Z,1002.81
2023-03-05T01:03:40.434Z,1002.81
2023-03-05T01:04:13.229Z,1002.71
2023-03-05T01:04:44.498Z,1002.71
2023-03-05T01:05:17.239Z,1002.71
2023-03-05T01:05:48.251Z,1002.71
2023-03-05T01:06:21.197Z,1002.71
2023-03-05T01:06:52.395Z,1002.64
2023-03-05T01:07:25.007Z,1002.64
2023-03-05T01:07:56.231Z,1002.64
2023-03-05T01:08:29.145Z,1002.64
2023-03-05T01:09:00.257Z,1002.71
2023-03-05T01:09:32.825Z,1002.71
2023-03-05T01:10:04.076Z,1002.71
2023-03-05T01:10:36.988Z,1002.71
2023-03-05T01:11:08.111Z,1002.54
2023-03-05T01:11:40.889Z,1002.54
2023-03-05T01:12:11.983Z,1002.64
2023-03-05T01:12:44.934Z,1002.64
2023-03-05T01:13:16.046Z,1002.71
2023-03-05T01:13:48.729Z,1002.71
2023-03-05T01:14:19.871Z,1002.71
2023-03-05T01:14:52.775Z,1002.71
2023-03-05T01:15:24.064Z,1002.71
2023-03-05T01:15:56.717Z,1002.64
2023-03-05T01:16:27.890Z,1002.64
2023-03-05T01:17:00.841Z,1002.64
2023-03-05T01:17:31.635Z,1002.64
2023-03-05T01:18:04.680Z,1002.54
2023-03-05T01:18:35.698Z,1002.54
2023-03-05T01:19:08.642Z,1002.64
2023-03-05T01:19:39.552Z,1002.64
2023-03-05T01:20:12.500Z,1002.64
2023-03-05T01:20:43.636Z,1002.64
2023-03-05T01:21:16.591Z,1002.64
2023-03-05T01:21:47.498Z,1002.64
2023-03-05T01:22:20.540Z,1002.64
2023-03-05T01:22:51.507Z,1002.54
2023-03-05T01:23:24.551Z,1002.54
2023-03-05T01:23:55.581Z,1002.64
2023-03-05T01:24:28.306Z,1002.64
2023-03-05T01:24:59.475Z,1002.54
2023-03-05T01:25:32.412Z,1002.54
2023-03-05T01:26:03.467Z,1002.54
2023-03-05T01:26:36.221Z,1002.54
2023-03-05T01:27:07.339Z,1002.54
2023-03-05T01:27:40.290Z,1002.54
2023-03-05T01:28:11.369Z,1002.64
2023-03-05T01:28:44.138Z,1002.64
2023-03-05T01:29:15.253Z,1002.34
2023-03-05T01:29:48.367Z,1002.54
2023-03-05T01:30:19.506Z,1002.54
2023-03-05T01:30:52.034Z,1002.54
2023-03-05T01:31:23.180Z,1002.54
2023-03-05T01:31:56.114Z,1002.54
2023-03-05T01:32:27.278Z,1002.54
2023-03-05T01:32:59.951Z,1002.34
2023-03-05T01:33:31.085Z,1002.34
2023-03-05T01:34:04.162Z,1002.44
2023-03-05T01:34:35.096Z,1002.44
2023-03-05T01:35:07.850Z,1002.34
2023-03-05T01:35:39.033Z,1002.34
2023-03-05T01:36:12.105Z,1002.44
2023-03-05T01:36:43.268Z,1002.44
2023-03-05T01:37:15.825Z,1002.34
2023-03-05T01:37:46.929Z,1002.44
2023-03-05T01:38:19.954Z,1002.44
2023-03-05T01:38:50.865Z,1002.34
2023-03-05T01:39:23.697Z,1002.34
2023-03-05T01:39:54.817Z,1002.34
2023-03-05T01:40:33.157Z,1002.34
2023-03-05T01:40:58.681Z,1002.34
2023-03-05T01:41:31.174Z,1002.34
2023-03-05T01:42:03.653Z,1002.34
2023-03-05T01:42:34.832Z,1002.34
2023-03-05T01:43:07.471Z,1002.34
2023-03-05T01:43:38.624Z,1002.34
2023-03-05T01:44:11.536Z,1002.54
2023-03-05T01:44:42.702Z,1002.54
2023-03-05T01:45:15.571Z,1002.44
2023-03-05T01:45:46.624Z,1002.44
2023-03-05T01:46:19.436Z,1002.44
2023-03-05T01:46:50.816Z,1002.44
2023-03-05T01:47:23.310Z,1002.44
2023-03-05T01:47:54.471Z,1002.34
2023-03-05T01:48:27.752Z,1002.34
2023-03-05T01:48:58.518Z,1002.23
2023-03-05T01:49:31.239Z,1002.23
2023-03-05T01:50:02.386Z,1002.13
2023-03-05T01:50:35.272Z,1002.13
2023-03-05T01:51:06.443Z,1002.34
2023-03-05T01:51:39.155Z,1002.34
2023-03-05T01:52:10.356Z,1002.23
2023-03-05T01:52:43.204Z,1002.23
2023-03-05T01:53:14.332Z,1002.23
2023-03-05T01:53:47.154Z,1002.23
2023-03-05T01:54:18.275Z,1002.23
2023-03-05T01:54:51.257Z,1002.13
2023-03-05T01:55:22.229Z,1002.13
2023-03-05T01:55:56.229Z,1002.13
2023-03-05T01:56:26.085Z,1002.13
2023-03-05T01:56:58.996Z,1002.03
2023-03-05T01:57:30.147Z,1002.03
2023-03-05T01:58:03.094Z,1002.13
2023-03-05T01:58:33.980Z,1002.13
2023-03-05T01:59:06.926Z,1002.03
2023-03-05T01:59:38.012Z,1002.03
2023-03-05T02:00:11.657Z,1002.13
2023-03-05T02:00:42.063Z,1002.13
2023-03-05T02:01:14.925Z,1001.93
2023-03-05T02:01:45.954Z,1002.03
2023-03-05T02:02:18.582Z,1002.03
2023-03-05T02:02:49.817Z,1001.93
2023-03-05T02:03:22.812Z,1001.93
2023-03-05T02:03:53.880Z,1002.03
2023-03-05T02:04:26.785Z,1002.03
2023-03-05T02:04:57.696Z,1001.93
2023-03-05T02:05:30.762Z,1001.93
2023-03-05T02:06:01.744Z,1001.93
2023-03-05T02:06:34.696Z,1001.93
2023-03-05T02:07:05.612Z,1002.03
2023-03-05T02:07:38.537Z,1002.03
2023-03-05T02:08:09.672Z,1002.03
2023-03-05T02:08:42.664Z,1002.03
2023-03-05T02:09:13.549Z,1002.13
2023-03-05T02:09:46.352Z,1001.83
2023-03-05T02:10:17.586Z,1001.83
2023-03-05T02:10:50.444Z,1001.83
2023-03-05T02:11:21.445Z,1001.83
2023-03-05T02:11:54.349Z,1002.13
2023-03-05T02:12:25.551Z,1002.13
2023-03-05T02:12:58.406Z,1001.93
2023-03-05T02:13:29.336Z,1001.93
2023-03-05T02:14:02.250Z,1002.03
2023-03-05T02:14:33.358Z,1002.03
2023-03-05T02:15:06.550Z,1001.93
2023-03-05T02:15:37.340Z,1001.93
2023-03-05T02:16:10.304Z,1002.03
2023-03-05T02:16:41.485Z,1002.03
2023-03-05T02:17:14.247Z,1002.03
2023-03-05T02:17:45.138Z,1002.03
2023-03-05T02:18:18.181Z,1001.93
2023-03-05T02:18:49.193Z,1001.93
2023-03-05T02:19:22.171Z,1001.93
2023-03-05T02:19:53.094Z,1001.93
2023-03-05T02:20:25.986Z,1001.93
2023-03-05T02:20:57.513Z,1001.93
2023-03-05T02:21:30.100Z,1001.93
2023-03-05T02:22:01.018Z,1001.83
2023-03-05T02:22:33.880Z,1001.83
2023-03-05T02:23:05.023Z,1001.93
2023-03-05T02:23:38.044Z,1001.93
2023-03-05T02:24:08.861Z,1001.73
2023-03-05T02:24:41.877Z,1001.73
2023-03-05T02:25:12.957Z,1001.93
2023-03-05T02:25:45.911Z,1001.93
2023-03-05T02:26:16.782Z,1001.93
2023-03-05T02:26:49.733Z,1001.83
2023-03-05T02:27:21.094Z,1001.83
2023-03-05T02:27:53.754Z,1001.83
2023-03-05T02:28:24.683Z,1001.83
2023-03-05T02:28:57.640Z,1001.83
2023-03-05T02:29:28.742Z,1001.83
2023-03-05T02:30:02.063Z,1001.93
2023-03-05T02:30:32.805Z,1001.93
2023-03-05T02:31:05.512Z,1001.83
2023-03-05T02:31:36.708Z,1001.83
2023-03-05T02:32:09.737Z,1001.83
2023-03-05T02:32:40.665Z,1001.83
2023-03-05T02:33:13.442Z,1001.83
2023-03-05T02:33:45.504Z,1001.83
2023-03-05T02:34:17.510Z,1001.73
2023-03-05T02:34:48.397Z,1001.62
2023-03-05T02:35:21.821Z,1001.62
2023-03-05T02:35:52.508Z,1001.73
2023-03-05T02:36:25.406Z,1001.73
2023-03-05T02:36:56.355Z,1001.83
2023-03-05T02:37:29.247Z,1001.83
2023-03-05T02:38:00.433Z,1001.83
2023-03-05T02:38:33.302Z,1001.83
2023-03-05T02:39:04.233Z,1001.73
2023-03-05T02:39:37.147Z,1001.73
2023-03-05T02:40:08.327Z,1001.62
2023-03-05T02:40:41.363Z,1001.62
2023-03-05T02:41:12.172Z,1001.62
2023-03-05T02:41:45.167Z,1001.62
2023-03-05T02:42:16.182Z,1001.62
2023-03-05T02:42:49.150Z,1001.62
2023-03-05T02:43:20.288Z,1001.62
2023-03-05T02:43:53.079Z,1001.73
2023-03-05T02:44:24.097Z,1001.73
2023-03-05T02:44:56.962Z,1001.62
2023-03-05T02:45:28.451Z,1001.62
2023-03-05T02:46:01.022Z,1001.62
2023-03-05T02:46:32.073Z,1001.62
2023-03-05T02:47:04.932Z,1001.52
2023-03-05T02:47:36.046Z,1001.52
2023-03-05T02:48:08.783Z,1001.62
2023-03-05T02:48:39.942Z,1001.62
2023-03-05T02:49:12.855Z,1001.52
2023-03-05T02:49:43.965Z,1001.52
2023-03-05T02:50:16.713Z,1001.42
2023-03-05T02:50:47.887Z,1001.42
2023-03-05T02:51:20.828Z,1001.42
2023-03-05T02:51:51.883Z,1001.52
2023-03-05T02:52:24.615Z,1001.52
2023-03-05T02:52:55.768Z,1001.62
2023-03-05T02:53:28.749Z,1001.62
2023-03-05T02:53:59.774Z,1001.62
2023-03-05T02:54:32.507Z,1001.62
2023-03-05T02:55:03.643Z,1001.52
2023-03-05T02:55:36.477Z,1001.52
2023-03-05T02:56:07.677Z,1001.42
2023-03-05T02:56:40.534Z,1001.42
2023-03-05T02:57:11.564Z,1001.52
2023-03-05T02:57:44.576Z,1001.52
2023-03-05T02:58:15.598Z,1001.42
2023-03-05T02:58:48.622Z,1001.32
2023-03-05T02:59:19.434Z,1001.32
2023-03-05T02:59:52.345Z,1001.52
2023-03-05T03:00:23.640Z,1001.52
2023-03-05T03:00:56.299Z,1001.52
2023-03-05T03:01:27.422Z,1001.52
2023-03-05T03:02:00.316Z,1001.52
2023-03-05T03:02:31.393Z,1001.52
2023-03-05T03:03:04.258Z,1001.32
2023-03-05T03:03:35.319Z,1001.32
2023-03-05T03:04:08.180Z,1001.42
2023-03-05T03:04:39.318Z,1001.42
2023-03-05T03:05:12.210Z,1001.42
2023-03-05T03:05:43.181Z,1001.42
2023-03-05T03:06:16.331Z,1001.52
2023-03-05T03:06:47.299Z,1001.32
2023-03-05T03:07:19.985Z,1001.32
2023-03-05T03:07:51.138Z,1001.42
2023-03-05T03:08:24.007Z,1001.42
2023-03-05T03:08:55.117Z,1001.42
2023-03-05T03:09:27.843Z,1001.42
2023-03-05T03:09:58.970Z,1001.42
2023-03-05T03:10:31.939Z,1001.42
2023-03-05T03:11:03.047Z,1001.42
2023-03-05T03:11:37.597Z,1001.42
2023-03-05T03:12:07.303Z,1001.22
2023-03-05T03:12:39.873Z,1001.22
2023-03-05T03:13:11.117Z,1001.32
2023-03-05T03:13:43.671Z,1001.32
2023-03-05T03:14:14.792Z,1001.22
2023-03-05T03:14:47.837Z,1001.32
2023-03-05T03:15:18.991Z,1001.32
2023-03-05T03:15:51.500Z,1001.22
2023-03-05T03:16:22.742Z,1001.22
2023-03-05T03:16:56.785Z,1001.22
2023-03-05T03:17:26.791Z,1001.22
2023-03-05T03:17:59.475Z,1001.12
2023-03-05T03:18:31.173Z,1001.12
2023-03-05T03:19:05.733Z,1001.12
2023-03-05T03:19:34.955Z,1001.12
2023-03-05T03:20:07.803Z,1001.22
2023-03-05T03:20:38.531Z,1001.22
2023-03-05T03:21:11.511Z,1001.22
2023-03-05T03:21:42.937Z,1001.22
2023-03-05T03:22:15.517Z,1001.12
2023-03-05T03:22:46.486Z,1001.22
2023-03-05T03:23:19.648Z,1001.22
2023-03-05T03:23:50.551Z,1001.12
2023-03-05T03:24:23.721Z,1001.12
2023-03-05T03:24:54.336Z,1001.22
2023-03-05T03:25:27.466Z,1001.22
2023-03-05T03:25:58.396Z,1001.12
2023-03-05T03:26:31.740Z,1001.12
2023-03-05T03:27:02.263Z,1001.12
2023-03-05T03:27:35.198Z,1001.12
2023-03-05T03:28:06.316Z,1001.12
2023-03-05T03:28:39.613Z,1001.12
2023-03-05T03:29:10.207Z,1001.22
2023-03-05T03:29:43.072Z,1001.22
2023-03-05T03:30:14.391Z,1001.12
2023-03-05T03:30:47.109Z,1001.32
2023-03-05T03:31:18.124Z,1001.32
2023-03-05T03:31:51.242Z,1001.12
2023-03-05T03:32:22.178Z,1001.12
2023-03-05T03:32:55.063Z,1001.22
2023-03-05T03:33:25.992Z,1001.22
2023-03-05T03:33:59.122Z,1001.22
2023-03-05T03:34:30.053Z,1001.22
2023-03-05T03:35:02.975Z,1001.12
2023-03-05T03:35:33.904Z,1001.12
2023-03-05T03:36:06.940Z,1001.01
2023-03-05T03:36:37.996Z,1001.01
2023-03-05T03:37:11.085Z,1001.12
2023-03-05T03:37:41.828Z,1001.12
2023-03-05T03:38:15.076Z,1001.12
2023-03-05T03:38:45.880Z,1001.01
2023-03-05T03:39:18.779Z,1001.01
2023-03-05T03:39:49.701Z,1001.12
2023-03-05T03:40:22.693Z,1001.12
2023-03-05T03:40:53.755Z,1001.01
2023-03-05T03:41:26.624Z,1001.01
2023-03-05T03:41:57.614Z,1001.01
2023-03-05T03:42:30.612Z,1001.01
2023-03-05T03:43:01.676Z,1001.01
2023-03-05T03:43:34.585Z,1001.01
2023-03-05T03:44:05.535Z,1001.01
2023-03-05T03:44:38.485Z,1001.01
2023-03-05T03:45:09.749Z,1001.01
2023-03-05T03:45:42.727Z,1001.01
2023-03-05T03:46:13.569Z,1001.12
2023-03-05T03:46:46.570Z,1000.91
2023-03-05T03:47:17.486Z,1000.91
2023-03-05T03:47:50.367Z,1001.01
2023-03-05T03:48:21.344Z,1001.01
2023-03-05T03:48:54.275Z,1001.01
2023-03-05T03:49:25.425Z,1001.01
2023-03-05T03:49:58.504Z,1000.91
2023-03-05T03:50:29.271Z,1000.91
2023-03-05T03:51:02.173Z,1000.91
2023-03-05T03:51:33.337Z,1000.91
2023-03-05T03:52:06.129Z,1000.91
2023-03-05T03:52:37.188Z,1000.91
2023-03-05T03:53:10.732Z,1000.81
2023-03-05T03:53:41.232Z,1000.81
2023-03-05T03:54:14.137Z,1001.01
2023-03-05T03:54:45.471Z,1001.01
2023-03-05T03:55:17.996Z,1000.91
2023-03-05T03:55:49.115Z,1000.91
2023-03-05T03:56:22.561Z,1000.91
2023-03-05T03:56:53.169Z,1000.91
2023-03-05T03:57:25.881Z,1000.91
2023-03-05T03:57:57.588Z,1000.91
2023-03-05T03:58:30.287Z,1000.91
2023-03-05T03:59:01.042Z,1000.91
2023-03-05T03:59:33.800Z,1000.91
2023-03-05T04:00:05.350Z,1000.91
2023-03-05T04:00:37.886Z,1000.91
2023-03-05T04:01:08.814Z,1000.81
2023-03-05T04:01:41.944Z,1000.81
2023-03-05T04:02:13.005Z,1000.91
2023-03-05T04:02:45.791Z,1000.91
2023-03-05T04:03:16.888Z,1000.81
2023-03-05T04:03:49.617Z,1000.71
2023-03-05T04:04:20.906Z,1000.71
2023-03-05T04:04:53.756Z,1000.81
2023-03-05T04:05:24.839Z,1000.81
2023-03-05T04:05:57.689Z,1000.61
2023-03-05T04:06:28.663Z,1000.61
2023-03-05T04:07:01.673Z,1000.71
2023-03-05T04:07:32.713Z,1000.71
2023-03-05T04:08:05.527Z,1000.91
2023-03-05T04:08:36.614Z,1000.91
2023-03-05T04:09:09.512Z,1000.81
2023-03-05T04:09:40.695Z,1000.81
2023-03-05T04:10:14.384Z,1000.81
2023-03-05T04:10:44.470Z,1000.81
2023-03-05T04:11:17.431Z,1000.71
2023-03-05T04:11:48.550Z,1000.71
2023-03-05T04:12:21.342Z,1000.71
2023-03-05T04:12:52.383Z,1000.71
2023-03-05T04:13:25.291Z,1000.71
2023-03-05T04:13:56.426Z,1000.81
2023-03-05T04:14:29.163Z,1000.81
2023-03-05T04:15:00.610Z,1000.61
2023-03-05T04:15:33.219Z,1000.61
2023-03-05T04:16:04.425Z,1000.81
2023-03-05T04:16:37.222Z,1000.81
2023-03-05T04:17:08.246Z,1000.71
2023-03-05T04:17:41.160Z,1000.71
2023-03-05T04:18:12.340Z,1000.71
2023-03-05T04:18:45.068Z,1000.71
2023-03-05T04:19:16.123Z,1000.61
2023-03-05T04:19:49.319Z,1000.81
2023-03-05T04:20:20.165Z,1000.81
2023-03-05T04:20:52.850Z,1000.71
2023-03-05T04:21:24.006Z,1000.71
2023-03-05T04:21:56.951Z,1000.81
2023-03-05T04:22:28.062Z,1000.81
2023-03-05T04:23:00.981Z,1000.71
2023-03-05T04:23:31.966Z,1000.71
2023-03-05T04:24:04.831Z,1000.81
2023-03-05T04:24:36.118Z,1000.81
2023-03-05T04:25:08.844Z,1000.81
2023-03-05T04:25:39.833Z,1000.81
2023-03-05T04:26:12.973Z,1000.81
2023-03-05T04:26:43.890Z,1000.81
2023-03-05T04:27:16.626Z,1000.71
2023-03-05T04:27:47.722Z,1000.71
2023-03-05T04:28:21.092Z,1000.71
2023-03-05T04:28:51.764Z,1000.81
2023-03-05T04:29:24.649Z,1000.81
2023-03-05T04:29:55.659Z,1000.61
2023-03-05T04:30:28.678Z,1000.61
2023-03-05T04:30:59.815Z,1000.54
2023-03-05T04:31:32.586Z,1000.54
2023-03-05T04:32:03.557Z,1000.81
2023-03-05T04:32:36.766Z,1000.81
2023-03-05T04:33:07.635Z,1000.61
2023-03-05T04:33:40.450Z,1000.61
2023-03-05T04:34:11.431Z,1000.71
2023-03-05T04:34:44.370Z,1000.71
2023-03-05T04:35:15.495Z,1000.61
2023-03-05T04:35:48.353Z,1000.54
2023-03-05T04:36:19.363Z,1000.54
2023-03-05T04:36:52.617Z,1000.54
2023-03-05T04:37:23.407Z,1000.54
2023-03-05T04:37:56.136Z,1000.54
2023-03-05T04:38:27.362Z,1000.54
2023-03-05T04:39:00.384Z,1000.54
2023-03-05T04:39:31.327Z,1000.54
2023-03-05T04:40:04.054Z,1000.44
2023-03-05T04:40:35.393Z,1000.44
2023-03-05T04:41:08.159Z,1000.54
2023-03-05T04:41:39.255Z,1000.54
2023-03-05T04:42:11.960Z,1000.61
2023-03-05T04:42:43.079Z,1000.61
2023-03-05T04:43:16.096Z,1000.61
2023-03-05T04:43:47.256Z,1000.61
2023-03-05T04:44:20.297Z,1000.61
2023-03-05T04:44:51.110Z,1000.54
2023-03-05T04:45:24.230Z,1000.54
2023-03-05T04:45:55.029Z,1000.54
2023-03-05T04:46:27.881Z,1000.54
2023-03-05T04:46:58.919Z,1000.54
2023-03-05T04:47:31.806Z,1000.54
2023-03-05T04:48:02.954Z,1000.44
2023-03-05T04:48:37.229Z,1000.44
2023-03-05T04:49:06.827Z,1000.44
2023-03-05T04:49:40.099Z,1000.44
2023-03-05T04:50:11.087Z,1000.61
2023-03-05T04:50:43.979Z,1000.61
2023-03-05T04:51:14.690Z,1000.54
2023-03-05T04:51:47.658Z,1000.44
2023-03-05T04:52:18.772Z,1000.44
2023-03-05T04:52:51.692Z,1000.34
2023-03-05T04:53:22.604Z,1000.34
2023-03-05T04:53:55.930Z,1000.61
2023-03-05T04:54:26.867Z,1000.61
2023-03-05T04:54:59.945Z,1000.44
2023-03-05T04:55:30.600Z,1000.44
2023-03-05T04:56:03.425Z,1000.54
2023-03-05T04:56:34.612Z,1000.54
2023-03-05T04:57:07.679Z,1000.34
2023-03-05T04:57:38.432Z,1000.34
2023-03-05T04:58:12.503Z,1000.44
2023-03-05T04:58:42.485Z,1000.44
2023-03-05T04:59:15.392Z,1000.34
2023-03-05T04:59:46.327Z,1000.44
2023-03-05T05:00:19.665Z,1000.44
2023-03-05T05:00:50.433Z,1000.34
2023-03-05T05:01:23.380Z,1000.34
2023-03-05T05:01:54.286Z,1000.44
2023-03-05T05:02:27.228Z,1000.44
2023-03-05T05:02:58.398Z,1000.34
2023-03-05T05:03:31.238Z,1000.34
2023-03-05T05:04:02.138Z,1000.34
2023-03-05T05:04:34.980Z,1000.34
2023-03-05T05:05:06.248Z,1000.34
2023-03-05T05:05:39.445Z,1000.34
2023-03-05T05:06:10.086Z,1000.34
2023-03-05T05:06:43.903Z,1000.34
2023-03-05T05:07:14.147Z,1000.34
2023-03-05T05:07:47.384Z,1000.24
2023-03-05T05:08:17.956Z,1000.24
2023-03-05T05:08:51.230Z,1000.34
2023-03-05T05:09:22.017Z,1000.34
2023-03-05T05:09:55.144Z,1000.34
2023-03-05T05:10:25.888Z,1000.34
2023-03-05T05:10:59.891Z,1000.34
2023-03-05T05:11:29.965Z,1000.34
2023-03-05T05:12:02.872Z,1000.24
2023-03-05T05:12:33.811Z,1000.24
2023-03-05T05:13:09.074Z,1000.24
2023-03-05T05:13:37.832Z,1000.24
2023-03-05T05:14:11.109Z,1000.13
2023-03-05T05:14:41.669Z,1000.13
2023-03-05T05:15:15.650Z,1000.13
2023-03-05T05:15:45.751Z,1000.03
2023-03-05T05:16:21.028Z,1000.03
2023-03-05T05:16:49.618Z,1000.24
2023-03-05T05:17:22.740Z,1000.24
2023-03-05T05:17:53.854Z,1000.24
2023-03-05T05:18:26.791Z,1000.24
2023-03-05T05:18:57.864Z,1000.34
2023-03-05T05:19:30.908Z,1000.34
2023-03-05T05:20:01.658Z,1000.13
2023-03-05T05:20:34.554Z,1000.13
2023-03-05T05:21:05.472Z,1000.24
2023-03-05T05:21:39.586Z,1000.24
2023-03-05T05:22:09.503Z,1000.34
2023-03-05T05:22:42.453Z,1000.34
2023-03-05T05:23:13.367Z,1000.24
2023-03-05T05:23:46.375Z,1000.13
2023-03-05T05:24:17.404Z,1000.13
2023-03-05T05:24:50.776Z,999.93
2023-03-05T05:25:21.286Z,999.93
2023-03-05T05:25:54.473Z,1000.24
2023-03-05T05:26:25.298Z,1000.24
2023-03-05T05:26:58.527Z,1000.24
2023-03-05T05:27:29.162Z,1000.24
2023-03-05T05:28:02.894Z,1000.13
2023-03-05T05:28:33.240Z,1000.13
2023-03-05T05:29:06.078Z,1000.24
2023-03-05T05:29:37.072Z,1000.24
2023-03-05T05:30:10.302Z,1000.24
2023-03-05T05:30:41.233Z,1000.24
2023-03-05T05:31:14.379Z,999.93
2023-03-05T05:31:45.099Z,999.93
2023-03-05T05:32:18.021Z,1000.13
2023-03-05T05:32:49.018Z,999.93
2023-03-05T05:33:22.155Z,999.93
2023-03-05T05:33:53.066Z,1000.13
2023-03-05T05:34:25.742Z,1000.13
2023-03-05T05:34:56.948Z,1000.13
2023-03-05T05:35:29.948Z,1000.13
2023-03-05T05:36:01.050Z,1000.24
2023-03-05T05:36:34.879Z,1000.24
2023-03-05T05:37:05.038Z,1000.03
2023-03-05T05:37:38.028Z,1000.03
2023-03-05T05:38:08.794Z,1000.13
2023-03-05T05:38:43.554Z,1000.13
2023-03-05T05:39:12.776Z,1000.13
2023-03-05T05:39:45.701Z,1000.13
2023-03-05T05:40:16.628Z,1000.13
2023-03-05T05:40:49.552Z,1000.13
2023-03-05T05:41:20.781Z,1000.13
2023-03-05T05:41:53.645Z,1000.03
2023-03-05T05:42:24.615Z,1000.03
2023-03-05T05:42:57.556Z,1000.03
2023-03-05T05:43:28.575Z,1000.03
2023-03-05T05:44:01.651Z,1000.24
2023-03-05T05:44:32.504Z,1000.24
2023-03-05T05:45:06.046Z,1000.34
2023-03-05T05:45:36.626Z,1000.34
2023-03-05T05:46:09.488Z,1000.24
2023-03-05T05:46:40.532Z,1000.24
2023-03-05T05:47:14.021Z,1000.13
2023-03-05T05:47:44.465Z,1000.13
2023-03-05T05:48:17.384Z,1000.13
2023-03-05T05:48:48.492Z,1000.03
2023-03-05T05:49:21.231Z,1000.03
2023-03-05T05:49:52.362Z,1000.03
2023-03-05T05:50:25.270Z,1000.03
2023-03-05T05:50:56.377Z,999.93
2023-03-05T05:51:29.229Z,999.93
2023-03-05T05:52:00.321Z,1000.03
2023-03-05T05:52:33.213Z,1000.03
2023-03-05T05:53:04.343Z,1000.03
2023-03-05T05:53:37.219Z,1000.03
2023-03-05T05:54:08.337Z,1000.24
2023-03-05T05:54:41.176Z,1000.24
2023-03-05T05:55:12.254Z,999.93
2023-03-05T05:55:45.136Z,999.93
2023-03-05T05:56:16.072Z,1000.03
2023-03-05T05:56:49.905Z,1000.03
2023-03-05T05:57:20.134Z,1000.03
2023-03-05T05:57:53.046Z,1000.03
2023-03-05T05:58:23.976Z,1000.03
2023-03-05T05:58:56.985Z,1000.13
2023-03-05T05:59:28.039Z,1000.13
2023-03-05T06:00:01.895Z,1000.03
2023-03-05T06:00:31.950Z,1000.03
2023-03-05T06:01:04.807Z,1000.03
2023-03-05T06:01:35.994Z,1000.03
2023-03-05T06:02:09.078Z,1000.03
2023-03-05T06:02:39.872Z,1000.03
2023-03-05T06:03:13.054Z,999.93
2023-03-05T06:03:43.792Z,999.93
2023-03-05T06:04:16.738Z,1000.13
2023-03-05T06:04:47.718Z,1000.13
2023-03-05T06:05:20.788Z,1000.13
2023-03-05T06:05:51.774Z,1000.03
2023-03-05T06:06:24.757Z,1000.03
2023-03-05T06:06:55.666Z,1000.13
2023-03-05T06:07:28.483Z,1000.13
2023-03-05T06:07:59.621Z,999.93
2023-03-05T06:08:32.634Z,999.93
2023-03-05T06:09:03.487Z,999.83
2023-03-05T06:09:36.389Z,999.83
2023-03-05T06:10:07.740Z,1000.03
2023-03-05T06:10:41.371Z,1000.03
2023-03-05T06:11:11.378Z,1000.03
2023-03-05T06:11:44.332Z,1000.03
2023-03-05T06:12:15.534Z,1000.03
2023-03-05T06:12:48.364Z,999.93
2023-03-05T06:13:19.281Z,999.93
2023-03-05T06:13:52.325Z,999.93
2023-03-05T06:14:23.341Z,999.93
2023-03-05T06:14:56.258Z,999.93
2023-03-05T06:15:27.635Z,999.93
2023-03-05T06:16:01.093Z,1000.03
2023-03-05T06:16:31.359Z,1000.03
2023-03-05T06:17:04.228Z,999.93
2023-03-05T06:17:35.112Z,999.93
2023-03-05T06:18:08.138Z,1000.03
2023-03-05T06:18:39.168Z,1000.03
2023-03-05T06:19:12.087Z,1000.03
2023-03-05T06:19:42.996Z,1000.03
2023-03-05T06:20:15.932Z,999.93
2023-03-05T06:20:47.231Z,1000.13
2023-03-05T06:21:20.113Z,1000.13
2023-03-05T06:21:51.004Z,1000.13
2023-03-05T06:22:23.745Z,1000.13
2023-03-05T06:22:54.964Z,1000.13
2023-03-05T06:23:28.712Z,1000.13
2023-03-05T06:23:58.891Z,1000.03
2023-03-05T06:24:31.766Z,1000.03
2023-03-05T06:25:02.958Z,999.93
2023-03-05T06:25:35.914Z,999.93
2023-03-05T06:26:07.044Z,999.93
2023-03-05T06:26:39.682Z,999.93
2023-03-05T06:27:11.085Z,1000.03